Latest Observation

39 Stations

Daily Data | America/Los_Angeles
as of 10/28/21 5:12 AM PDT
Station Date Daily Max Temp (°F) Time of Max Temp Daily Min Temp (°F) Time of Min Temp Daily Rain (In) Monthly Rain (In) Seasonal Rainfall (In) Daily ETo (in) 7 Day ETo (in) Daily Solar Rad (Cal/cm2) Wind Spd (mph) Daily Max Wind (mph) Time of Max Wind Max Wind Dir (°) Dew Pt (°F) Max RH (%) Min RH (%) Hrs 70-85F (hrs) Hrs > 95F (hrs) Powdery Mildew Stress (pts) Hrs <= 32F (hrs) Hrs <= 28F (hrs) GDDs (DL) Seas GDDs (DL) Chilling <=45F (hrs) Chilling <=45F Seas (hrs) Daily Leaf Wet Hrs (hrs) Daily Max CanT (°F) Daily Min CanT (°F) Bat Volt Min Day (V)
Colony 1 10/27/21 72.8 1433 50.4 0443 0.00 7.61 7.73 0.098 0.46 350 2.4 15.8 1555 NNW | 329 54.6 98 56 4.70 0.00 0 0.0 0.0 11.1 3,924 0.0 - - - - 12.7
Colony 2 10/27/21 74.5 1515 50.1 0450 0.00 6.97 7.10 0.096 0.47 339 2.2 13.2 1601 NW | 305 54.0 97 52 5.31 0.00 0 0.0 0.0 11.0 3,921 0.0 - - - - 12.7
5 Wells 10/27/21 72.1 1529 50.1 0531 0.00 6.64 6.67 0.071 0.45 231 2.8 15.4 1647 NW | 312 54.6 100 57 3.76 0.00 0 0.0 0.0 9.9 3,914 0.0 - - - - 12.3
Simmerhorn 10/27/21 72.3 1508 50.2 0502 - - - - - - - - - - 54.8 100 56 3.78 0.00 0 0.0 0.0 10.2 3,893 0.0 - - - - 12.0
Galt-East 10/27/21 72.0 1518 50.2 0410 0.00 5.19 5.24 0.087 0.43 322 2.8 14.4 1530 WNW | 296 54.8 97 61 3.29 0.00 0 0.0 0.0 10.1 3,971 0.0 - - - - 12.4
Borden Hills 10/27/21 74.3 1521 51.1 0523 0.00 1.42 6.50 0.097 0.46 352 3.1 13.1 1445 NW | 323 56.4 98 62 4.84 0.00 0 0.0 0.0 11.6 4,308 0.0 - - - - 12.5
Sierra Loma-L27 10/27/21 73.4 1550 50.6 0520 0.00 6.94 6.96 - - - 2.6 14.5 1314 WSW | 258 55.8 99 62 4.16 0.00 0 0.0 0.0 10.8 4,177 0.0 - - - - 12.5
Lockeford 10/27/21 71.7 1453 48.3 0546 0.00 6.94 6.99 0.091 0.44 344 2.2 13.2 1613 NW | 313 53.9 96 62 4.99 0.00 0 0.0 0.0 9.5 3,825 0.0 - 12.6 73.8 48.8 12.0
Lone Oak-L28 10/27/21 71.2 1521 45.3 0625 0.00 5.90 5.91 - - - 2.4 14.0 1321 N | 351 52.9 100 66 0.95 0.00 0 0.0 0.0 7.8 3,523 0.0 - - - - 12.6
Kost Rd 10/27/21 71.0 1556 51.6 0540 0.00 6.81 6.85 0.088 0.45 337 2.2 14.1 1650 NW | 324 56.2 100 67 1.06 0.00 0 0.0 0.0 10.3 3,831 0.0 - - - - 11.9
Thornton 10/27/21 70.5 1610 50.0 0637 0.00 6.57 6.60 0.102 0.52 372 2.2 14.5 1426 N | 349 53.1 89 62 0.94 0.00 0 0.0 0.0 9.7 3,896 0.0 - 12.6 - - 12.5
Lodi (LangeTwins) 10/27/21 71.5 1423 50.9 0712 0.00 7.23 7.38 0.087 0.46 334 1.7 13.5 1626 NW | 322 56.0 100 66 2.73 0.00 0 0.0 0.0 10.1 3,919 0.0 - 6.0 - - 12.5
Gilbeau Ranch 10/27/21 72.1 1459 49.9 0535 0.00 6.96 7.00 0.095 0.47 351 1.6 12.6 1527 W | 277 53.9 98 55 4.07 0.00 0 0.0 0.0 10.4 3,907 0.0 - - - - 10.2
Galt West 10/27/21 71.6 1558 51.3 0316 0.00 7.68 7.68 0.089 0.44 335 2.5 14.0 1624 WNW | 298 54.9 97 63 1.55 0.00 0 0.0 0.0 10.1 3,849 0.0 - - - - 12.6
Valley Oak 10/27/21 72.0 1459 50.2 0539 0.00 7.02 7.04 0.095 0.48 349 2.0 13.4 1614 WNW | 299 54.3 100 57 4.12 0.00 0 0.0 0.0 9.8 3,818 0.0 - - - - 12.0
Guard Rd (Lodi WSW) 10/27/21 73.3 1414 48.4 0637 0.00 6.27 6.34 0.092 0.49 340 1.9 13.8 1543 NW | 309 54.9 98 59 4.30 0.00 0 0.0 0.0 10.0 3,603 0.0 - 10.6 82.4 47.3 12.2
Linden 10/27/21 73.2 1540 46.8 0631 0.00 6.42 6.45 - - - 1.5 11.9 1622 NNW | 329 53.9 100 59 4.44 0.00 0 0.0 0.0 9.4 3,744 0.0 - 14.9 - - 12.7
DeVries Road-North 10/27/21 71.1 1418 49.1 0509 0.00 6.99 7.26 0.091 0.47 347 2.0 12.7 1554 N | 350 54.7 99 65 2.04 0.00 0 0.0 0.0 8.9 3,777 0.0 - - - - 12.6
Acampo 10/27/21 71.3 1441 49.0 0550 0.00 6.66 6.75 0.092 0.47 335 1.9 12.8 1545 NW | 313 52.8 98 57 3.08 0.00 0 0.0 0.0 9.1 3,862 0.0 - 14.1 - - 13.4
Acampo (Woodbridge) 10/27/21 70.3 1426 51.4 0628 0.00 6.15 6.19 0.095 0.51 348 3.2 16.4 1617 NNW | 327 55.0 96 62 0.56 0.00 0 0.0 0.0 10.3 3,985 0.0 - - - - 12.0
Lodi West 10/27/21 71.3 1434 51.2 0716 0.00 6.14 6.37 0.092 0.47 347 1.7 15.1 1539 NW | 326 54.6 97 61 3.42 - 0 0.0 0.0 10.7 3,971 0.0 - 0.0 - - 12.1
Teresi-Alpine Rd (East Lodi) 10/27/21 71.9 1512 49.9 0554 0.00 6.34 6.38 0.097 0.52 352 2.7 15.3 1634 NW | 315 54.3 97 59 3.45 0.00 0 0.0 0.0 10.2 - 0.0 1,318 - - - 12.7
Victor - N (Katusha) 10/27/21 70.7 1449 49.3 0645 0.00 - 5.06 - - - 1.7 13.5 1519 NNW | 341 53.3 98 58 1.05 0.00 0 0.0 0.0 9.9 - 0.0 - - - - 12.8
Live Oak 10/27/21 72.3 1456 48.1 0600 0.00 6.03 6.09 0.086 0.46 313 2.0 13.0 1436 W | 277 54.3 100 59 2.87 0.00 0 0.0 0.0 9.4 3,945 0.0 - - - - 12.7
Sheldon 10/27/21 72.5 1511 49.7 0429 0.00 6.63 6.76 0.097 0.43 342 2.5 14.5 1556 WNW | 283 53.9 97 56 4.33 0.00 0 0.0 0.0 10.4 3,899 0.0 - 9.8 - - 12.8
Sloughhouse 10/27/21 73.2 1539 47.1 0516 0.00 6.96 7.17 0.099 0.46 345 2.5 15.5 1552 NNW | 336 51.7 96 50 4.81 0.00 0 0.0 0.0 10.2 3,754 0.0 - - - - 12.4
Utter - Wilson 10/27/21 71.9 1522 52.3 0727 0.00 6.87 6.87 0.090 0.44 332 4.2 14.8 1311 NNW | 337 56.5 99 66 2.89 0.00 0 0.0 0.0 11.2 3,908 0.0 - - - - 12.5
Clarksburg 10/27/21 71.6 1457 52.2 0427 0.00 6.81 6.81 0.097 0.51 345 3.4 16.1 1616 N | 2 54.2 92 58 2.71 0.00 0 0.0 0.0 11.6 3,975 0.0 - - - - 12.5
Clarksburg-3A2 10/27/21 69.4 1619 52.2 0438 0.00 6.58 6.58 0.088 0.47 325 5.7 17.9 1605 NW | 314 55.9 99 66 0.00 0.00 0 0.0 0.0 10.8 3,873 0.0 - - - - 12.8
Gorter - Wilson 10/27/21 72.0 1529 49.8 0527 0.00 6.90 6.94 0.085 0.42 312 3.4 14.4 1555 N | 350 55.9 100 64 3.32 0.00 0 0.0 0.0 10.6 3,824 0.0 - - - - 12.3
Hood 10/27/21 70.9 1505 51.5 0420 0.00 6.66 6.77 0.090 0.45 343 2.5 13.6 1607 N | 3 56.2 100 64 1.47 0.00 0 0.0 0.0 10.9 3,734 0.0 - - - - 12.5
Courtland-C3 10/27/21 70.8 1528 51.0 0649 0.00 6.35 6.35 - - - 3.4 15.9 1628 NNW | 329 55.6 99 70 0.30 0.00 0 0.0 0.0 9.7 3,772 0.0 - - - - 12.6
Pacific Fruit 10/27/21 71.6 1458 50.2 0451 0.00 6.93 6.95 0.087 0.46 331 2.2 11.6 1449 NNE | 20 54.6 96 63 2.93 0.00 0 0.0 0.0 9.7 3,798 0.0 - - - - 12.4
Ryer Island South 10/27/21 72.4 1417 50.8 0055 0.00 6.05 6.11 0.091 0.47 334 2.2 11.8 1513 N | 0 55.3 98 60 4.29 0.00 0 0.0 0.0 10.6 4,042 0.0 - 12.0 - - 12.2
Farmington (Mobley100) 10/27/21 72.1 1514 47.4 0613 - - - - - - 0.6 11.2 1425 NW | 310 53.6 98 61 2.93 0.00 10 0.0 0.0 9.2 3,814 0.0 - - - - 12.5
Collegeville 10/27/21 71.8 1527 47.4 0702 0.00 4.53 4.56 0.084 0.44 317 1.4 11.8 1557 NNW | 339 54.5 100 61 3.39 0.00 0 0.0 0.0 9.5 3,944 0.0 - - - - 12.6
Oakdale North (28 Mile Rd) 10/27/21 70.7 1510 46.5 0723 - - - - - - 0.9 11.3 1529 NW | 320 53.0 99 62 0.89 0.00 40 0.0 0.0 8.7 4,133 0.0 - - - - 12.8
Escalon 10/27/21 73.4 1609 47.3 0622 0.00 4.22 4.22 - - - 1.9 12.7 1554 NNW | 344 54.6 100 59 3.48 0.00 10 0.0 0.0 10.1 4,210 0.0 - 9.4 - - 12.3
Claussen 10/27/21 71.8 1511 49.2 0625 0.00 3.01 3.01 0.094 0.53 361 2.8 15.9 1630 NNW | 334 56.2 99 68 2.55 0.00 0 0.0 0.0 10.5 4,111 0.0 - - - - 12.5
Max   74.5 - 52.3 - 0.00 7.68 - 0.102 - 372 5.7 17.9 - - 56.5 100 70 5.31 0.00 - 0.0 0.0 11.6 - 0.0 - 14.9 82.4 48.8 13.4
Avg   - - - - - 6.27 - - - - 2.4 - - - 54.6 - - 2.97 0.00 - 0.0 0.0 10.1 - 0.0 - - - - -
Min   69.4 - 45.3 - 0.00 1.42 - 0.071 - 231 0.6 11.2 - - 51.7 89 50 0.00 0.00 - 0.0 0.0 7.8 - 0.0 - 0.0 73.8 47.3 10.2